Time;durP1;ratioP1;P1;durP2;ratioP2;P2;SDS_P1;SDS_P2;PMS_P1;PMS_P2;Temp;Humidity;BMP_temperature;BMP_pressure;BME280_temperature;BME280_humidity;BME280_pressure;Samples;Min_cycle;Max_cycle;Signal;HPM_P1;HPM_P2
2021/09/27 00:00:53;;;;;;;13.50;12.18;;;;;;;16.56;98.74;98855.59;4932025;28;103095;-68
2021/09/27 00:03:22;;;;;;;12.25;11.15;;;;;;;16.57;98.42;98857.25;4918281;28;102742;-68
2021/09/27 00:05:52;;;;;;;12.68;11.52;;;;;;;16.56;98.07;98856.41;4931007;28;104118;-68
2021/09/27 00:08:20;;;;;;;12.55;11.55;;;;;;;16.50;98.01;98856.97;4929253;28;104288;-68
2021/09/27 00:10:53;;;;;;;13.57;12.38;;;;;;;16.47;98.62;98865.25;4928093;28;103315;-68
2021/09/27 00:13:24;;;;;;;15.32;13.90;;;;;;;16.36;99.32;98853.91;4928721;28;102774;-68
2021/09/27 00:15:54;;;;;;;13.98;12.68;;;;;;;16.34;100.00;98862.03;4928791;28;102938;-68
2021/09/27 00:18:23;;;;;;;13.57;12.38;;;;;;;16.29;100.00;98861.63;4927731;28;103362;-68
2021/09/27 00:20:55;;;;;;;12.98;11.88;;;;;;;16.21;100.00;98861.50;4913088;28;104443;-68
2021/09/27 00:23:24;;;;;;;14.25;12.95;;;;;;;16.24;100.00;98861.22;4928545;28;102720;-68
2021/09/27 00:25:53;;;;;;;12.63;11.55;;;;;;;16.28;100.00;98867.13;4930034;28;103022;-68
2021/09/27 00:28:22;;;;;;;11.48;10.48;;;;;;;16.28;100.00;98867.94;4926990;28;103321;-69
2021/09/27 00:30:51;;;;;;;12.00;11.00;;;;;;;16.27;100.00;98866.28;4932424;28;103039;-68
2021/09/27 00:33:21;;;;;;;10.90;10.00;;;;;;;16.32;99.46;98873.81;4935934;28;102835;-68
2021/09/27 00:35:49;;;;;;;14.73;13.40;;;;;;;16.26;98.81;98861.91;4937690;28;102671;-68
2021/09/27 00:38:19;;;;;;;13.27;12.18;;;;;;;16.21;99.57;98864.16;4937589;28;105049;-68
2021/09/27 00:40:51;;;;;;;14.68;13.27;;;;;;;16.20;100.00;98862.47;4936925;28;103181;-73
2021/09/27 00:43:20;;;;;;;14.10;12.80;;;;;;;16.21;100.00;98861.50;4939781;28;102745;-69
2021/09/27 00:45:51;;;;;;;16.17;14.55;;;;;;;16.16;100.00;98858.44;4939697;28;102762;-68
2021/09/27 00:48:21;;;;;;;15.45;14.00;;;;;;;16.06;100.00;98852.25;4936624;28;104183;-68
2021/09/27 00:50:52;;;;;;;16.70;14.98;;;;;;;15.86;100.00;98839.94;4936889;28;103286;-68
2021/09/27 00:53:26;;;;;;;16.60;15.10;;;;;;;15.86;100.00;98839.94;4919387;28;102743;-68
2021/09/27 00:55:57;;;;;;;15.48;14.07;;;;;;;15.93;100.00;98846.38;4938701;28;103209;-69
2021/09/27 00:58:26;;;;;;;16.23;14.35;;;;;;;15.85;100.00;98848.91;4935676;28;103388;-68
2021/09/27 01:00:55;;;;;;;11.98;10.98;;;;;;;15.94;100.00;98842.75;4932728;28;103384;-69
2021/09/27 01:03:24;;;;;;;15.90;14.30;;;;;;;15.74;100.00;98841.91;4935869;28;102925;-68
2021/09/27 01:06:01;;;;;;;17.33;15.52;;;;;;;15.47;100.00;98845.22;4935668;28;102711;-68
2021/09/27 01:08:39;;;;;;;15.32;13.73;;;;;;;15.61;100.00;98847.47;4937357;28;103117;-68
2021/09/27 01:11:32;;;;;;;15.93;14.55;;;;;;;15.72;100.00;98843.03;4919775;28;103191;-68
2021/09/27 01:14:23;;;;;;;11.48;10.48;;;;;;;15.81;100.00;98850.16;4938101;28;102724;-68
2021/09/27 01:16:57;;;;;;;16.63;15.10;;;;;;;15.67;100.00;98854.06;4936393;28;102893;-67
2021/09/27 01:19:48;;;;;;;17.73;16.02;;;;;;;15.55;100.00;98848.03;4937470;28;103363;-69
2021/09/27 01:22:30;;;;;;;14.85;13.55;;;;;;;15.61;100.00;98852.81;4937386;28;103403;-72
2021/09/27 01:25:22;;;;;;;16.50;14.88;;;;;;;15.68;100.00;98850.44;4937163;28;102635;-72
2021/09/27 01:28:35;;;;;;;16.48;14.85;;;;;;;15.63;100.00;98850.84;4937329;28;102834;-72
2021/09/27 01:31:39;;;;;;;13.05;11.85;;;;;;;15.78;100.00;98842.44;4857510;28;103335;-72
2021/09/27 01:34:14;;;;;;;15.25;13.88;;;;;;;15.83;100.00;98850.88;4858334;28;103027;-71
2021/09/27 01:36:55;;;;;;;15.70;14.30;;;;;;;15.85;100.00;98849.75;4922044;28;103208;-72
2021/09/27 01:39:31;;;;;;;13.90;12.70;;;;;;;15.92;100.00;98842.88;4920168;28;102999;-72
2021/09/27 01:42:08;;;;;;;16.10;14.60;;;;;;;15.90;100.00;98841.31;4937641;28;104565;-73
2021/09/27 01:44:42;;;;;;;17.83;16.13;;;;;;;15.92;100.00;98840.19;4937518;28;103178;-71
2021/09/27 01:47:17;;;;;;;20.02;18.10;;;;;;;15.92;100.00;98840.19;4937400;28;102777;-73
2021/09/27 01:49:57;;;;;;;18.85;17.02;;;;;;;15.86;100.00;98838.09;4939771;28;102731;-73
2021/09/27 01:52:30;;;;;;;18.10;16.40;;;;;;;15.95;100.00;98839.06;4936450;28;103953;-73
2021/09/27 01:55:06;;;;;;;21.90;19.67;;;;;;;15.97;100.00;98837.13;4940689;28;103273;-72
2021/09/27 01:57:43;;;;;;;21.65;19.50;;;;;;;15.94;100.00;98834.75;4922529;28;102777;-72
2021/09/27 02:00:17;;;;;;;21.92;19.73;;;;;;;15.83;100.00;98833.03;4940341;28;102871;-72
2021/09/27 02:02:51;;;;;;;16.80;15.15;;;;;;;16.04;100.00;98832.91;4933642;28;104101;-72
2021/09/27 02:05:27;;;;;;;14.63;13.27;;;;;;;16.17;100.00;98841.44;4940521;28;102970;-72
2021/09/27 02:08:00;;;;;;;15.60;14.20;;;;;;;16.19;100.00;98837.66;4939721;28;102827;-67
2021/09/27 02:10:34;;;;;;;14.73;13.35;;;;;;;16.17;100.00;98833.44;4940162;28;102736;-67
2021/09/27 02:13:09;;;;;;;19.45;17.55;;;;;;;15.95;100.00;98833.75;4939584;28;104124;-67
2021/09/27 02:15:43;;;;;;;20.40;18.10;;;;;;;15.90;100.00;98846.66;4939281;28;103288;-67
2021/09/27 02:18:18;;;;;;;15.20;13.88;;;;;;;15.97;100.00;98850.47;4922375;28;103995;-67
2021/09/27 02:20:54;;;;;;;17.48;15.80;;;;;;;16.12;100.00;98846.34;4922906;28;104415;-71
2021/09/27 02:23:29;;;;;;;18.65;16.85;;;;;;;16.11;100.00;98839.38;4943030;28;103142;-72
2021/09/27 02:25:58;;;;;;;21.05;18.85;;;;;;;15.84;100.00;98848.06;4941838;28;103429;-72
2021/09/27 02:28:28;;;;;;;21.20;19.02;;;;;;;15.75;100.00;98837.41;4923424;28;103163;-71
2021/09/27 02:31:06;;;;;;;20.90;18.80;;;;;;;15.71;100.00;98844.84;4939685;28;104098;-72
2021/09/27 02:33:39;;;;;;;16.70;15.13;;;;;;;15.96;100.00;98851.44;4938198;28;103217;-72
2021/09/27 02:36:14;;;;;;;21.30;19.10;;;;;;;15.86;100.00;98850.59;4939859;28;103359;-72
2021/09/27 02:38:49;;;;;;;18.15;16.35;;;;;;;15.81;100.00;98848.34;4921777;28;102772;-67
2021/09/27 02:41:25;;;;;;;18.75;16.85;;;;;;;15.89;100.00;98848.47;4939940;28;102789;-72
2021/09/27 02:43:54;;;;;;;20.55;18.50;;;;;;;15.83;100.00;98845.56;4937609;28;104281;-74
2021/09/27 02:46:23;;;;;;;20.70;18.50;;;;;;;15.81;100.00;98842.16;4929388;28;103004;-73
2021/09/27 02:48:57;;;;;;;15.93;14.38;;;;;;;15.95;100.00;98850.59;4925695;28;103208;-70
2021/09/27 02:51:29;;;;;;;14.93;13.43;;;;;;;16.09;100.00;98850.16;4932998;28;103983;-70
2021/09/27 02:53:57;;;;;;;12.48;11.27;;;;;;;16.18;100.00;98856.44;4913340;28;104467;-72
2021/09/27 02:56:47;;;;;;;11.52;10.32;;;;;;;16.28;100.00;98856.44;4931816;28;103267;-67
2021/09/27 02:59:24;;;;;;;15.30;13.73;;;;;;;16.14;100.00;98855.88;4932350;28;103060;-67
2021/09/27 03:02:06;;;;;;;14.95;13.63;;;;;;;16.02;100.00;98858.84;4913850;28;102952;-71
2021/09/27 03:04:49;;;;;;;16.38;14.88;;;;;;;16.06;100.00;98858.44;4920578;28;103351;-71
2021/09/27 03:07:27;;;;;;;16.00;14.60;;;;;;;16.11;100.00;98860.69;4930634;28;103311;-72
2021/09/27 03:10:16;;;;;;;13.57;12.30;;;;;;;16.21;100.00;98858.84;4931962;28;102663;-72
2021/09/27 03:12:51;;;;;;;13.75;12.55;;;;;;;16.30;100.00;98859.81;4939437;28;102694;-72
2021/09/27 03:15:45;;;;;;;11.40;10.40;;;;;;;16.34;100.00;98855.84;4938292;28;102723;-71
2021/09/27 03:18:26;;;;;;;10.30;9.40;;;;;;;16.37;100.00;98851.09;4919214;28;104012;-72
2021/09/27 03:21:04;;;;;;;15.77;14.20;;;;;;;16.30;100.00;98855.31;4938618;28;103524;-72
2021/09/27 03:23:46;;;;;;;10.73;9.80;;;;;;;16.34;100.00;98851.38;4938592;28;102670;-72
2021/09/27 03:26:27;;;;;;;14.10;12.85;;;;;;;16.36;100.00;98854.75;4937994;28;104550;-72
2021/09/27 03:29:07;;;;;;;11.18;10.18;;;;;;;16.33;100.00;98849.72;4939090;28;103220;-72
2021/09/27 03:31:45;;;;;;;15.68;13.88;;;;;;;16.28;100.00;98851.94;4939820;28;102661;-72
2021/09/27 03:34:27;;;;;;;15.82;14.43;;;;;;;16.24;100.00;98848.75;4937925;28;102768;-72
2021/09/27 03:37:21;;;;;;;15.40;13.73;;;;;;;16.19;100.00;98845.66;4936679;28;104222;-72
2021/09/27 03:40:00;;;;;;;15.25;13.70;;;;;;;16.18;100.00;98851.97;4938456;28;103238;-72
2021/09/27 03:42:39;;;;;;;14.20;12.90;;;;;;;16.23;100.00;98848.88;4921982;28;103139;-72
2021/09/27 03:45:13;;;;;;;12.23;11.13;;;;;;;16.32;100.00;98857.84;4939079;28;102756;-72
2021/09/27 03:47:51;;;;;;;12.02;10.85;;;;;;;16.38;100.00;98852.78;4938548;28;102626;-72
2021/09/27 03:50:25;;;;;;;14.88;13.48;;;;;;;16.38;100.00;98857.25;4937855;28;103225;-72
2021/09/27 03:52:58;;;;;;;11.35;10.32;;;;;;;16.41;100.00;98855.16;4939422;28;102744;-71
2021/09/27 03:55:37;;;;;;;11.30;10.20;;;;;;;16.46;100.00;98860.91;4940309;28;102750;-72
2021/09/27 03:58:10;;;;;;;10.10;9.20;;;;;;;16.48;100.00;98858.91;4921221;28;104330;-72
2021/09/27 04:00:43;;;;;;;16.10;14.50;;;;;;;16.49;100.00;98855.28;4940073;28;103220;-72
2021/09/27 04:03:36;;;;;;;14.77;13.45;;;;;;;16.44;100.00;98848.69;4921051;28;102885;-71
2021/09/27 04:06:34;;;;;;;11.73;10.73;;;;;;;16.43;100.00;98853.19;4921260;28;102932;-71
2021/09/27 04:09:07;;;;;;;15.18;13.75;;;;;;;16.45;100.00;98853.88;4938665;28;103287;-66
2021/09/27 04:11:48;;;;;;;17.92;16.13;;;;;;;16.35;100.00;98853.06;4920288;28;103492;-66
2021/09/27 04:14:21;;;;;;;12.63;11.52;;;;;;;16.34;100.00;98845.19;4938071;28;102823;-66
2021/09/27 04:17:02;;;;;;;17.02;15.32;;;;;;;16.22;100.00;98849.88;4938195;28;102702;-66
2021/09/27 04:19:41;;;;;;;15.15;13.80;;;;;;;16.30;100.00;98844.66;4919353;28;103319;-66
2021/09/27 04:22:15;;;;;;;12.63;11.55;;;;;;;16.38;100.00;98846.59;4919812;28;104053;-66
2021/09/27 04:25:00;;;;;;;16.25;14.70;;;;;;;16.35;100.00;98838.88;4937207;28;102710;-66
2021/09/27 04:27:43;;;;;;;14.25;12.85;;;;;;;16.33;100.00;98844.38;4938715;28;102560;-72
2021/09/27 04:30:26;;;;;;;12.88;11.65;;;;;;;16.39;100.00;98843.81;4937665;28;103397;-67
2021/09/27 04:33:14;;;;;;;11.13;10.23;;;;;;;16.41;100.00;98836.50;4937217;28;102992;-66
2021/09/27 04:35:53;;;;;;;11.60;10.60;;;;;;;16.40;100.00;98840.13;4938742;28;102643;-66
2021/09/27 04:38:22;;;;;;;17.60;16.02;;;;;;;16.26;100.00;98843.25;4936022;28;102991;-72
2021/09/27 04:41:18;;;;;;;15.88;14.27;;;;;;;16.15;100.00;98838.06;4938301;28;103305;-72
2021/09/27 04:44:00;;;;;;;13.00;11.90;;;;;;;16.20;100.00;98841.16;4938158;28;103258;-72
2021/09/27 04:46:35;;;;;;;15.27;13.80;;;;;;;16.21;100.00;98840.19;4936332;28;104011;-68
2021/09/27 04:49:18;;;;;;;13.30;12.20;;;;;;;16.19;100.00;98837.66;4926960;28;104098;-68
2021/09/27 04:51:55;;;;;;;12.00;11.00;;;;;;;16.17;100.00;98828.97;4905617;28;103299;-68
2021/09/27 04:55:03;;;;;;;11.63;10.63;;;;;;;16.20;100.00;98835.81;4928622;28;103204;-68
2021/09/27 04:57:42;;;;;;;10.70;9.70;;;;;;;16.19;100.00;98835.00;4928095;28;102769;-68
2021/09/27 05:00:18;;;;;;;9.27;8.48;;;;;;;16.19;100.00;98837.66;4931075;28;103004;-67
2021/09/27 05:03:20;;;;;;;15.07;13.77;;;;;;;16.15;100.00;98830.94;4931788;28;103066;-65
2021/09/27 05:06:14;;;;;;;10.77;9.70;;;;;;;16.12;100.00;98835.69;4901582;28;107467;-66
2021/09/27 05:09:05;;;;;;;14.02;12.75;;;;;;;16.06;100.00;98838.94;4931142;28;103119;-67
2021/09/27 05:12:02;;;;;;;11.95;10.85;;;;;;;15.93;100.00;98835.72;4929120;28;102737;-66
2021/09/27 05:14:58;;;;;;;13.95;12.68;;;;;;;15.92;100.00;98844.69;4933913;28;103590;-67
2021/09/27 05:17:44;;;;;;;10.07;9.27;;;;;;;15.90;100.00;98846.66;4934967;28;103227;-67
2021/09/27 05:20:42;;;;;;;12.73;11.57;;;;;;;15.78;100.00;98845.09;4935271;28;102636;-68
2021/09/27 05:23:19;;;;;;;15.23;13.80;;;;;;;15.69;100.00;98849.44;4937555;28;103110;-68
2021/09/27 05:26:07;;;;;;;11.23;10.23;;;;;;;15.69;100.00;98856.63;4935966;28;103832;-67
2021/09/27 05:28:56;;;;;;;10.65;9.75;;;;;;;15.82;100.00;98855.34;4938474;28;103255;-68
2021/09/27 05:31:41;;;;;;;11.75;10.73;;;;;;;15.86;100.00;98853.25;4940549;28;102688;-67
2021/09/27 05:34:22;;;;;;;10.40;9.50;;;;;;;15.84;100.00;98855.19;4939704;28;102678;-67
2021/09/27 05:37:07;;;;;;;11.82;10.80;;;;;;;15.85;100.00;98843.56;4939435;28;104059;-68
2021/09/27 05:39:51;;;;;;;12.93;11.70;;;;;;;15.86;100.00;98855.94;4940058;28;103086;-67
2021/09/27 05:42:29;;;;;;;10.88;9.98;;;;;;;15.92;100.00;98852.66;4938662;28;103747;-66
2021/09/27 05:45:10;;;;;;;12.60;11.48;;;;;;;15.98;100.00;98860.97;4939745;28;103640;-66
2021/09/27 05:47:46;;;;;;;12.98;11.75;;;;;;;15.96;100.00;98851.44;4939551;28;103442;-66
2021/09/27 05:50:23;;;;;;;9.77;8.85;;;;;;;15.95;100.00;98860.38;4939006;28;103299;-67
2021/09/27 05:53:01;;;;;;;14.15;12.85;;;;;;;15.92;100.00;98863.34;4939537;28;102687;-68
2021/09/27 05:55:35;;;;;;;12.60;11.45;;;;;;;15.94;100.00;98858.72;4940168;28;103012;-69
2021/09/27 05:58:10;;;;;;;13.32;12.07;;;;;;;15.91;100.00;98859.00;4941325;28;104102;-68
2021/09/27 06:00:45;;;;;;;11.55;10.55;;;;;;;15.96;100.00;98859.41;4942109;28;103264;-66
2021/09/27 06:03:34;;;;;;;11.90;10.73;;;;;;;15.94;100.00;98853.41;4939225;28;102788;-68
2021/09/27 06:06:15;;;;;;;11.85;10.85;;;;;;;16.02;100.00;98856.19;4939744;28;104249;-68
2021/09/27 06:08:53;;;;;;;12.57;11.25;;;;;;;16.07;100.00;98861.94;4939524;28;103467;-68
2021/09/27 06:11:33;;;;;;;9.90;9.00;;;;;;;16.24;100.00;98855.88;4940646;28;103254;-68
2021/09/27 06:14:02;;;;;;;10.43;9.50;;;;;;;16.31;100.00;98867.66;4939944;28;102694;-68
2021/09/27 06:16:41;;;;;;;14.05;12.55;;;;;;;16.31;100.00;98874.84;4939024;28;103102;-69
2021/09/27 06:19:18;;;;;;;10.75;9.77;;;;;;;16.40;100.00;98871.28;4938405;28;103342;-68
2021/09/27 06:22:08;;;;;;;15.57;14.18;;;;;;;16.49;100.00;98868.63;4940853;28;103130;-69
2021/09/27 06:24:51;;;;;;;11.70;10.70;;;;;;;16.68;99.66;98871.25;4941206;28;103111;-68
2021/09/27 06:27:29;;;;;;;16.20;14.52;;;;;;;16.65;99.22;98870.69;4939801;28;104049;-68
2021/09/27 06:30:08;;;;;;;16.60;14.52;;;;;;;16.70;98.83;98866.59;4939642;28;103137;-68
2021/09/27 06:32:50;;;;;;;12.05;10.88;;;;;;;16.87;98.61;98864.19;4940552;28;103787;-68
2021/09/27 06:35:22;;;;;;;11.50;10.48;;;;;;;16.93;97.85;98861.75;4937739;28;102825;-68
2021/09/27 06:37:53;;;;;;;13.77;12.38;;;;;;;16.98;97.05;98862.16;4921334;28;104175;-69
2021/09/27 06:40:22;;;;;;;15.30;13.45;;;;;;;16.98;97.06;98866.69;4939067;28;103338;-68
2021/09/27 06:42:51;;;;;;;14.32;13.02;;;;;;;16.96;97.45;98869.47;4938170;28;103967;-67
2021/09/27 06:45:19;;;;;;;15.93;14.07;;;;;;;16.98;97.28;98861.34;4939131;28;102696;-67
2021/09/27 06:47:48;;;;;;;16.98;15.30;;;;;;;16.95;97.68;98858.97;4937200;28;102985;-67
2021/09/27 06:50:17;;;;;;;11.68;10.55;;;;;;;17.03;97.88;98865.25;4935478;28;104039;-67
2021/09/27 06:52:45;;;;;;;12.98;11.77;;;;;;;17.25;97.00;98864.84;4939382;28;103286;-67
2021/09/27 06:55:17;;;;;;;14.55;13.07;;;;;;;17.25;96.92;98869.34;4939712;28;102604;-67
2021/09/27 06:57:46;;;;;;;16.13;14.27;;;;;;;17.29;96.41;98860.88;4939913;28;102931;-67
2021/09/27 07:00:15;;;;;;;17.10;15.40;;;;;;;17.29;96.17;98854.72;4938878;28;103064;-69
2021/09/27 07:02:44;;;;;;;17.27;15.40;;;;;;;17.52;95.54;98850.63;4939450;28;103169;-69
2021/09/27 07:05:13;;;;;;;15.52;13.93;;;;;;;17.79;94.16;98852.44;4940445;28;102644;-69
2021/09/27 07:07:45;;;;;;;16.05;14.55;;;;;;;18.07;92.94;98854.03;4938399;28;102703;-69
2021/09/27 07:10:19;;;;;;;16.20;14.60;;;;;;;18.02;92.44;98852.81;4937639;28;103723;-70
2021/09/27 07:12:47;;;;;;;15.48;13.95;;;;;;;18.16;92.22;98853.09;4940792;28;103250;-68
2021/09/27 07:15:16;;;;;;;15.80;14.15;;;;;;;18.45;90.27;98839.44;4938483;28;103358;-70
2021/09/27 07:17:45;;;;;;;14.43;12.98;;;;;;;18.52;89.91;98845.88;4939672;28;102754;-66
2021/09/27 07:20:16;;;;;;;17.08;15.45;;;;;;;18.52;88.13;98836.03;4922309;28;103282;-66
2021/09/27 07:22:44;;;;;;;15.57;13.98;;;;;;;18.79;88.18;98832.31;4938367;28;103272;-68
2021/09/27 07:25:16;;;;;;;15.07;13.52;;;;;;;18.88;86.92;98831.38;4939629;28;102753;-68
2021/09/27 07:27:45;;;;;;;14.88;13.48;;;;;;;19.13;86.16;98829.63;4939562;28;102753;-66
2021/09/27 07:30:14;;;;;;;18.55;13.85;;;;;;;19.21;85.23;98828.81;4938613;28;104253;-66
2021/09/27 07:32:44;;;;;;;15.20;13.52;;;;;;;19.60;82.75;98832.66;4939542;28;103014;-66
2021/09/27 07:35:16;;;;;;;16.63;15.00;;;;;;;19.74;82.52;98832.00;4936512;28;102870;-66
2021/09/27 07:37:45;;;;;;;15.87;14.27;;;;;;;20.28;80.56;98832.41;4937815;28;103708;-66
2021/09/27 07:40:17;;;;;;;14.95;13.63;;;;;;;20.76;78.79;98827.78;4936708;28;103272;-69
2021/09/27 07:42:46;;;;;;;12.68;11.40;;;;;;;21.06;77.22;98831.53;4920853;28;103324;-69
2021/09/27 07:45:17;;;;;;;13.82;12.50;;;;;;;21.36;76.14;98830.75;4939853;28;102696;-69
2021/09/27 07:47:46;;;;;;;12.85;11.65;;;;;;;21.65;74.69;98829.25;4938998;28;102702;-67
2021/09/27 07:50:15;;;;;;;13.30;11.93;;;;;;;21.57;74.21;98837.38;4937605;28;103269;-70
2021/09/27 07:52:44;;;;;;;12.00;10.77;;;;;;;21.88;73.41;98839.06;4939269;28;103197;-70
2021/09/27 07:55:15;;;;;;;10.77;9.70;;;;;;;22.10;73.78;98839.22;4938971;28;102688;-67
2021/09/27 07:57:44;;;;;;;12.07;11.07;;;;;;;22.06;71.36;98836.06;4939559;28;102785;-68
2021/09/27 08:00:15;;;;;;;12.50;11.00;;;;;;;22.38;69.53;98835.78;4936563;28;105281;-67
2021/09/27 08:02:44;;;;;;;10.80;9.75;;;;;;;22.42;70.27;98839.81;4938014;28;103206;-67
2021/09/27 08:05:16;;;;;;;10.95;9.73;;;;;;;23.07;69.56;98831.06;4938990;28;102720;-66
2021/09/27 08:07:45;;;;;;;10.32;9.25;;;;;;;23.26;69.06;98827.78;4938778;28;103932;-66
2021/09/27 08:10:17;;;;;;;8.20;7.50;;;;;;;23.26;65.36;98825.09;4937726;28;103182;-67
2021/09/27 08:12:46;;;;;;;8.80;8.07;;;;;;;23.65;65.91;98833.69;4934913;28;103142;-67
2021/09/27 08:15:18;;;;;;;8.68;7.97;;;;;;;23.92;64.83;98828.53;4935099;28;102719;-69
2021/09/27 08:17:48;;;;;;;8.90;8.15;;;;;;;23.34;64.92;98830.38;4936299;28;102999;-70
2021/09/27 08:20:19;;;;;;;7.13;6.53;;;;;;;23.92;66.44;98829.38;4937708;28;104037;-70
2021/09/27 08:22:48;;;;;;;7.75;7.05;;;;;;;24.22;65.30;98830.94;4938385;28;103274;-70
2021/09/27 08:25:18;;;;;;;7.63;6.93;;;;;;;24.60;64.01;98831.47;4937945;28;103207;-69
2021/09/27 08:27:46;;;;;;;;;;;;;;;24.27;62.77;98826.84;4939367;28;102769;-70
2021/09/27 08:30:18;;;;;;;7.57;6.35;;;;;;;24.34;64.92;98839.34;4919599;28;103379;-70
2021/09/27 08:32:47;;;;;;;7.13;6.53;;;;;;;23.95;64.65;98833.56;4937684;28;103382;-70
2021/09/27 08:35:16;;;;;;;6.57;5.93;;;;;;;24.65;64.48;98831.72;4937078;28;102733;-70
2021/09/27 08:37:45;;;;;;;7.35;6.72;;;;;;;24.11;64.53;98838.75;4936806;28;102729;-70
2021/09/27 08:40:25;;;;;;;5.97;5.50;;;;;;;25.13;61.97;98846.19;4936298;28;103390;-70
2021/09/27 08:42:54;;;;;;;5.88;5.38;;;;;;;25.44;61.80;98852.97;4937143;28;103068;-70
2021/09/27 08:45:26;;;;;;;5.30;4.90;;;;;;;25.51;60.28;98843.91;4935329;28;102645;-67
2021/09/27 08:48:02;;;;;;;5.78;5.03;;;;;;;24.47;59.67;98844.88;4936380;28;102838;-67
2021/09/27 08:50:34;;;;;;;4.70;4.22;;;;;;;24.79;61.56;98838.03;4934754;28;103255;-66
2021/09/27 08:53:05;;;;;;;4.35;4.05;;;;;;;24.71;59.19;98836.31;4937235;28;103761;-69
2021/09/27 08:55:38;;;;;;;4.28;3.97;;;;;;;25.45;56.99;98833.03;4919888;28;102649;-69
2021/09/27 08:58:21;;;;;;;4.15;3.85;;;;;;;25.92;55.76;98843.81;4935891;28;103564;-65
2021/09/27 09:00:55;;;;;;;4.38;4.00;;;;;;;25.50;57.14;98841.38;4937395;28;103264;-69
2021/09/27 09:03:29;;;;;;;3.95;3.50;;;;;;;24.70;56.86;98834.66;4938615;28;103736;-69
2021/09/27 09:06:05;;;;;;;3.42;3.13;;;;;;;24.39;58.57;98836.94;4937992;28;103189;-68
2021/09/27 09:08:39;;;;;;;4.05;2.80;;;;;;;24.98;56.46;98836.53;4939779;28;102937;-65
2021/09/27 09:11:14;;;;;;;3.30;2.88;;;;;;;24.85;55.57;98831.03;4924358;28;103377;-65
2021/09/27 09:13:45;;;;;;;3.40;3.20;;;;;;;25.18;55.23;98829.38;4940903;28;103172;-66
2021/09/27 09:16:17;;;;;;;3.30;3.00;;;;;;;25.18;55.71;98832.09;4938955;28;102838;-65
2021/09/27 09:18:50;;;;;;;3.78;3.00;;;;;;;25.04;56.36;98841.16;4940159;28;103136;-68
2021/09/27 09:21:22;;;;;;;3.58;3.28;;;;;;;23.98;58.09;98833.19;4940393;28;103550;-69
2021/09/27 09:23:54;;;;;;;3.30;2.70;;;;;;;24.32;59.50;98835.19;4920856;28;103117;-65
2021/09/27 09:26:31;;;;;;;2.90;2.70;;;;;;;23.96;58.80;98835.25;4940251;28;103010;-69
2021/09/27 09:29:00;;;;;;;2.75;2.45;;;;;;;24.33;58.89;98832.31;4939983;28;102771;-69
2021/09/27 09:31:34;;;;;;;3.22;2.65;;;;;;;25.14;57.45;98817.28;4939154;28;104249;-68
2021/09/27 09:34:05;;;;;;;3.45;3.08;;;;;;;24.71;57.17;98819.28;4939801;28;103271;-69
2021/09/27 09:36:39;;;;;;;3.65;3.35;;;;;;;24.03;57.95;98825.34;4943159;28;102971;-69
2021/09/27 09:39:15;;;;;;;3.45;3.10;;;;;;;24.00;58.13;98826.56;4921162;28;102764;-68
2021/09/27 09:41:47;;;;;;;3.47;3.17;;;;;;;24.26;58.60;98823.31;4920309;28;104307;-69
2021/09/27 09:44:25;;;;;;;4.20;3.28;;;;;;;23.88;58.88;98821.88;4939534;28;103874;-69
2021/09/27 09:47:03;;;;;;;4.20;3.25;;;;;;;24.23;58.83;98821.00;4939003;28;102806;-68
2021/09/27 09:49:50;;;;;;;3.05;2.85;;;;;;;23.65;61.06;98820.19;4939819;28;102683;-66
2021/09/27 09:52:25;;;;;;;3.30;3.00;;;;;;;23.47;59.05;98814.38;4939643;28;104051;-67
2021/09/27 09:54:55;;;;;;;3.50;3.20;;;;;;;23.13;60.53;98816.81;4939691;28;103339;-70
2021/09/27 09:57:32;;;;;;;2.40;2.20;;;;;;;23.56;60.01;98818.63;4939668;28;102768;-70
2021/09/27 10:00:07;;;;;;;3.30;3.00;;;;;;;23.20;60.41;98817.75;4940032;28;103081;-70
2021/09/27 10:02:38;;;;;;;5.20;3.30;;;;;;;23.25;61.60;98815.31;4939090;28;103714;-70
2021/09/27 10:05:09;;;;;;;3.45;3.15;;;;;;;22.75;62.17;98820.63;4939506;28;103234;-71
2021/09/27 10:07:49;;;;;;;3.15;2.72;;;;;;;23.30;62.25;98817.47;4938172;28;102649;-69
2021/09/27 10:10:32;;;;;;;3.50;3.20;;;;;;;23.38;59.55;98809.31;4937870;28;104253;-70
2021/09/27 10:13:03;;;;;;;3.50;3.20;;;;;;;24.16;59.67;98812.00;4939121;28;103348;-69
2021/09/27 10:15:42;;;;;;;2.83;2.63;;;;;;;25.00;56.99;98808.28;4940832;28;103239;-70
2021/09/27 10:18:27;;;;;;;3.10;2.88;;;;;;;25.22;55.52;98806.31;4941079;28;102708;-70
2021/09/27 10:21:11;;;;;;;3.72;2.78;;;;;;;25.44;54.31;98805.13;4920968;28;102851;-69
2021/09/27 10:23:42;;;;;;;2.65;2.45;;;;;;;25.40;53.81;98806.59;4939258;28;104191;-70
2021/09/27 10:26:16;;;;;;;;;;;;;;;25.23;53.23;98803.41;4922188;28;103363;-69
2021/09/27 10:28:46;;;;;;;;;;;;;;;24.87;54.65;98807.38;4940054;28;102746;-66
2021/09/27 10:31:15;;;;;;;;;;;;;;;25.65;53.29;98812.31;4938792;28;103192;-65
2021/09/27 10:33:52;;;;;;;2.87;2.67;;;;;;;25.74;52.29;98803.78;4936374;28;104097;-65
2021/09/27 10:36:22;;;;;;;;;;;;;;;25.54;52.60;98811.03;4939136;28;103303;-69
2021/09/27 10:38:52;;;;;;;;;;;;;;;25.67;51.95;98811.06;4938347;28;103119;-68
2021/09/27 10:41:22;;;;;;;;;;;;;;;24.91;53.91;98806.78;4933443;28;102914;-69
2021/09/27 10:43:53;;;;;;;;;;;;;;;24.75;54.93;98801.66;4936031;28;104122;-70
2021/09/27 10:46:23;;;;;;;;;;;;;;;24.91;54.93;98803.22;4937673;28;102877;-68
2021/09/27 10:48:53;;;;;;;;;;;;;;;25.16;55.22;98809.81;4938865;28;102703;-66
2021/09/27 10:51:23;;;;;;;;;;;;;;;24.96;53.79;98801.59;4938410;28;102712;-66
2021/09/27 10:53:52;;;;;;;;;;;;;;;24.63;54.70;98800.53;4936364;28;104133;-66
2021/09/27 10:56:26;;;;;;;;;;;;;;;24.69;53.92;98806.00;4935655;28;104316;-66
2021/09/27 10:58:56;;;;;;;;;;;;;;;25.69;53.19;98797.34;4934401;28;103016;-65
2021/09/27 11:01:36;;;;;;;;;;;;;;;26.16;52.50;98799.13;4934659;28;102756;-64
2021/09/27 11:04:06;;;;;;;;;;;;;;;26.27;51.19;98796.63;4919659;28;104144;-65
2021/09/27 11:06:37;;;;;;;;;;;;;;;25.93;50.93;98789.50;4938026;28;103420;-66
2021/09/27 11:09:06;;;;;;;;;;;;;;;25.55;52.24;98795.63;4918265;28;103089;-66
2021/09/27 11:11:40;;;;;;;;;;;;;;;25.35;52.31;98793.66;4936756;28;102757;-66
2021/09/27 11:14:28;;;;;;;;;;;;;;;26.07;50.93;98789.50;4937707;28;102969;-65
2021/09/27 11:16:57;;;;;;;;;;;;;;;26.41;50.53;98782.00;4935683;28;103192;-66
2021/09/27 11:19:37;;;;;;;;;;;;;;;26.07;51.61;98778.66;4935842;28;102668;-66
2021/09/27 11:22:33;;;;;;;;;;;;;;;25.26;52.95;98777.84;4921705;28;103089;-70
2021/09/27 11:25:09;;;;;;;;;;;;;;;25.83;51.60;98774.66;4938757;28;103167;-71
2021/09/27 11:27:38;;;;;;;;;;;;;;;26.34;51.23;98769.53;4921262;28;104244;-70
2021/09/27 11:30:21;;;;;;;;;;;;;;;26.52;49.42;98767.03;4940348;28;102618;-66
2021/09/27 11:32:53;;;;;;;;;;;;;;;26.76;49.24;98758.19;4936513;28;103751;-67
2021/09/27 11:35:34;;;;;;;;;;;;;;;27.08;48.64;98755.63;4937561;28;103235;-69
2021/09/27 11:38:23;;;;;;;;;;;;;;;27.26;46.90;98753.03;4938017;28;103235;-69
2021/09/27 11:40:55;;;;;;;3.58;2.53;;;;;;;27.09;48.50;98751.88;4929124;28;102830;-70
2021/09/27 11:47:56;;;;;;;2.80;2.50;;;;;;;27.51;46.37;98751.28;4947616;23;103246;-66
2021/09/27 11:51:03;;;;;;;9.60;2.95;;;;;;;27.46;45.85;98745.66;4857548;28;103658;-65
2021/09/27 11:53:42;;;;;;;2.95;2.10;;;;;;;27.06;44.94;98748.53;4870341;28;102651;-65
2021/09/27 11:56:18;;;;;;;2.30;2.10;;;;;;;27.79;44.75;98743.56;4872095;28;104146;-65
2021/09/27 11:58:52;;;;;;;2.30;2.00;;;;;;;27.42;46.07;98747.16;4872192;28;104409;-65
2021/09/27 12:01:33;;;;;;;2.08;1.90;;;;;;;27.69;45.96;98743.25;4869439;28;104614;-65